Time;durP1;ratioP1;P1;durP2;ratioP2;P2;SDS_P1;SDS_P2;PMS_P1;PMS_P2;Temp;Humidity;BMP_temperature;BMP_pressure;BME280_temperature;BME280_humidity;BME280_pressure;Samples;Min_cycle;Max_cycle;Signal;HPM_P1;HPM_P2
2024/04/15 00:01:45;;;;;;;6.18;2.40;;;14.30;59.10;;;;;;11047548;26;22781;-67
2024/04/15 00:06:51;;;;;;;6.85;2.00;;;14.20;59.40;;;;;;11048525;26;20238;-69
2024/04/15 00:11:59;;;;;;;5.70;1.92;;;14.10;59.60;;;;;;11047390;26;20324;-68
2024/04/15 00:17:06;;;;;;;4.00;2.10;;;14.00;59.80;;;;;;11050139;26;20613;-67
2024/04/15 00:22:11;;;;;;;6.47;2.10;;;13.90;60.20;;;;;;11054662;26;20234;-68
2024/04/15 00:27:19;;;;;;;7.00;2.65;;;13.70;62.30;;;;;;11055756;26;20311;-69
2024/04/15 00:32:25;;;;;;;6.45;2.60;;;13.60;62.00;;;;;;11057092;26;20837;-68
2024/04/15 00:37:30;;;;;;;3.50;2.45;;;13.40;62.80;;;;;;11054487;26;20258;-67
2024/04/15 00:42:38;;;;;;;3.72;2.80;;;13.40;62.00;;;;;;11055266;26;20241;-67
2024/04/15 00:47:44;;;;;;;6.38;2.53;;;13.40;63.50;;;;;;11058431;26;20242;-67
2024/04/15 00:52:49;;;;;;;6.47;3.17;;;13.40;62.60;;;;;;11052986;26;20804;-69
2024/04/15 00:57:57;;;;;;;5.10;3.33;;;13.40;63.70;;;;;;11054279;26;20358;-67
2024/04/15 01:03:03;;;;;;;6.88;3.60;;;13.40;64.00;;;;;;11055657;26;20249;-70
2024/04/15 01:08:10;;;;;;;7.22;3.47;;;13.30;64.10;;;;;;11053857;26;22260;-67
2024/04/15 01:13:18;;;;;;;6.65;3.50;;;13.30;64.50;;;;;;11056170;26;20656;-68
2024/04/15 01:18:23;;;;;;;8.32;4.00;;;13.30;64.80;;;;;;11056529;26;20238;-66
2024/04/15 01:23:33;;;;;;;7.57;3.70;;;13.20;64.70;;;;;;11056350;26;20242;-69
2024/04/15 01:28:41;;;;;;;6.25;3.90;;;13.20;64.80;;;;;;11054067;26;20725;-68
2024/04/15 01:33:46;;;;;;;6.45;4.50;;;13.10;65.30;;;;;;11057490;26;20253;-69
2024/04/15 01:38:51;;;;;;;5.43;4.30;;;13.10;64.90;;;;;;11053083;26;20233;-68
2024/04/15 01:44:00;;;;;;;5.03;4.30;;;13.20;65.20;;;;;;11057068;26;20341;-67
2024/04/15 01:49:05;;;;;;;8.27;5.47;;;13.20;65.70;;;;;;11063210;26;20237;-68
2024/04/15 01:54:10;;;;;;;10.45;6.25;;;13.10;65.20;;;;;;11053707;26;20238;-67
2024/04/15 01:59:18;;;;;;;11.25;5.82;;;13.20;66.20;;;;;;11056613;26;20358;-68
2024/04/15 02:04:24;;;;;;;9.45;6.57;;;13.10;65.40;;;;;;11053386;26;20324;-68
2024/04/15 02:09:29;;;;;;;8.27;5.88;;;13.10;66.00;;;;;;11053876;26;20234;-67
2024/04/15 02:14:38;;;;;;;8.52;6.03;;;13.10;66.10;;;;;;11051558;26;20237;-68
2024/04/15 02:19:43;;;;;;;8.52;5.93;;;13.10;66.40;;;;;;11056106;26;20242;-67
2024/04/15 02:24:48;;;;;;;6.45;5.75;;;13.00;66.30;;;;;;11049212;26;20624;-66
2024/04/15 02:29:58;;;;;;;8.00;7.18;;;13.00;65.90;;;;;;11054212;26;20356;-70
2024/04/15 02:35:03;;;;;;;10.57;7.55;;;13.00;66.30;;;;;;11055138;26;20336;-66
2024/04/15 02:40:09;;;;;;;10.52;8.30;;;13.00;66.50;;;;;;11076769;26;21031;-68
2024/04/15 02:45:18;;;;;;;11.98;7.65;;;13.00;66.50;;;;;;11083136;26;20245;-67
2024/04/15 02:50:23;;;;;;;10.50;6.93;;;12.90;66.50;;;;;;11067882;26;20234;-68
2024/04/15 02:55:29;;;;;;;9.10;7.68;;;12.90;66.60;;;;;;11091994;26;20238;-66
2024/04/15 03:00:37;;;;;;;9.65;7.63;;;12.80;67.30;;;;;;11063517;26;20346;-65
2024/04/15 03:05:43;;;;;;;12.10;8.23;;;12.80;67.10;;;;;;11057564;26;20842;-62
2024/04/15 03:10:49;;;;;;;10.40;8.38;;;12.70;67.50;;;;;;11060728;26;20241;-67
2024/04/15 03:16:00;;;;;;;10.48;8.70;;;12.70;67.00;;;;;;11086657;26;20233;-64
2024/04/15 03:21:20;;;;;;;10.77;9.63;;;12.70;68.20;;;;;;11121108;26;21000;-64
2024/04/15 03:26:26;;;;;;;14.48;10.40;;;12.60;67.50;;;;;;11116079;26;20384;-63
2024/04/15 03:31:33;;;;;;;14.35;11.00;;;12.60;68.20;;;;;;11116959;26;20712;-64
2024/04/15 03:36:39;;;;;;;13.27;11.57;;;12.60;68.10;;;;;;11099182;26;20343;-73
2024/04/15 03:41:44;;;;;;;13.02;11.57;;;12.60;68.70;;;;;;11101696;26;20304;-65
2024/04/15 03:46:52;;;;;;;16.20;12.40;;;12.60;68.40;;;;;;11103379;26;20242;-62
2024/04/15 03:51:58;;;;;;;12.80;11.32;;;12.60;68.60;;;;;;11093663;26;20333;-64
2024/04/15 03:57:03;;;;;;;16.52;11.85;;;12.50;67.90;;;;;;11062419;26;20871;-65
2024/04/15 04:02:11;;;;;;;15.38;12.05;;;12.40;68.20;;;;;;11065889;26;22092;-65
2024/04/15 04:07:17;;;;;;;15.07;11.75;;;12.40;68.30;;;;;;11061051;26;20233;-63
2024/04/15 04:12:23;;;;;;;13.05;10.65;;;12.40;68.70;;;;;;11067375;26;20299;-67
2024/04/15 04:17:31;;;;;;;15.00;11.05;;;12.30;70.20;;;;;;11063294;26;20346;-67
2024/04/15 04:22:36;;;;;;;15.07;10.93;;;12.30;69.60;;;;;;11059288;26;20250;-65
2024/04/15 04:27:41;;;;;;;14.80;10.82;;;12.30;70.10;;;;;;11066131;26;20234;-67
2024/04/15 04:32:49;;;;;;;14.30;9.43;;;12.20;69.60;;;;;;11065272;26;20242;-69
2024/04/15 04:37:55;;;;;;;11.35;8.70;;;12.20;70.00;;;;;;11072321;26;20241;-68
2024/04/15 04:43:00;;;;;;;11.18;7.65;;;12.10;69.60;;;;;;11089191;26;20236;-67
2024/04/15 04:48:09;;;;;;;14.27;8.60;;;12.00;69.50;;;;;;11095456;26;20993;-66
2024/04/15 04:53:14;;;;;;;11.57;8.25;;;12.00;69.80;;;;;;11107767;26;20305;-67
2024/04/15 04:58:20;;;;;;;12.90;8.80;;;11.90;70.00;;;;;;11084559;26;20229;-67
2024/04/15 05:03:28;;;;;;;11.57;8.32;;;11.80;70.50;;;;;;10998591;26;20242;-66
2024/04/15 05:08:33;;;;;;;11.73;8.23;;;11.70;71.40;;;;;;11065575;26;20237;-67
2024/04/15 05:13:39;;;;;;;14.48;9.18;;;11.70;70.60;;;;;;11065982;26;20351;-68
2024/04/15 05:18:47;;;;;;;11.40;8.82;;;11.70;70.90;;;;;;11067432;26;20245;-68
2024/04/15 05:23:53;;;;;;;10.70;8.30;;;11.70;69.90;;;;;;11068640;26;20241;-68
2024/04/15 05:28:58;;;;;;;11.27;7.85;;;11.80;70.40;;;;;;11073286;26;20583;-68
2024/04/15 05:34:06;;;;;;;13.82;8.60;;;11.80;71.10;;;;;;11075462;26;20242;-66
2024/04/15 05:39:11;;;;;;;11.27;8.20;;;11.80;70.40;;;;;;11072929;26;20238;-68
2024/04/15 05:44:17;;;;;;;9.73;7.28;;;11.80;71.10;;;;;;11070685;26;20355;-68
2024/04/15 05:49:25;;;;;;;10.48;6.90;;;11.80;71.70;;;;;;11069376;26;21903;-67
2024/04/15 05:54:30;;;;;;;9.13;6.20;;;11.90;70.80;;;;;;11075054;26;20241;-67
2024/04/15 05:59:36;;;;;;;8.55;5.78;;;12.00;70.60;;;;;;11068637;26;20352;-68
2024/04/15 06:04:44;;;;;;;12.35;5.38;;;12.00;69.90;;;;;;11067072;26;20316;-68
2024/04/15 06:09:50;;;;;;;8.63;4.97;;;12.10;70.10;;;;;;11065329;26;20299;-68
2024/04/15 06:14:55;;;;;;;8.70;5.32;;;12.00;69.90;;;;;;11082679;26;20366;-67
2024/04/15 06:20:04;;;;;;;14.98;4.90;;;11.90;70.90;;;;;;11068998;26;20238;-68
2024/04/15 06:25:09;;;;;;;11.95;4.80;;;11.90;70.00;;;;;;11066740;26;20356;-68
2024/04/15 06:30:14;;;;;;;8.48;4.30;;;11.90;69.10;;;;;;11067264;26;20237;-68
2024/04/15 06:35:22;;;;;;;9.77;4.80;;;11.90;70.00;;;;;;11069807;26;20237;-67
2024/04/15 06:40:29;;;;;;;7.80;3.88;;;11.80;69.90;;;;;;11072343;26;20301;-69
2024/04/15 06:45:34;;;;;;;7.75;3.97;;;11.90;70.50;;;;;;11065089;26;20355;-69
2024/04/15 06:50:42;;;;;;;13.57;4.35;;;11.90;69.80;;;;;;11065726;26;20234;-68
2024/04/15 06:55:48;;;;;;;10.43;4.15;;;11.90;70.10;;;;;;11066306;26;20882;-68
2024/04/15 07:00:53;;;;;;;10.85;4.53;;;11.90;69.60;;;;;;11069726;26;20767;-65
2024/04/15 07:06:01;;;;;;;11.75;4.32;;;11.90;69.30;;;;;;11068921;26;22038;-66
2024/04/15 07:11:07;;;;;;;11.48;4.30;;;12.00;69.50;;;;;;11065484;26;20244;-67
2024/04/15 07:16:12;;;;;;;7.95;4.25;;;11.90;70.10;;;;;;11066944;26;20242;-66
2024/04/15 07:21:21;;;;;;;11.20;5.85;;;12.00;69.80;;;;;;11066939;26;20238;-66
2024/04/15 07:26:27;;;;;;;10.40;5.70;;;12.00;69.70;;;;;;11065359;26;20316;-66
2024/04/15 07:31:32;;;;;;;11.15;6.03;;;12.00;69.80;;;;;;11065923;26;20229;-66
2024/04/15 07:36:41;;;;;;;11.25;6.13;;;12.00;70.00;;;;;;11066391;26;20241;-67
2024/04/15 07:41:47;;;;;;;11.60;5.43;;;12.00;69.40;;;;;;11065825;26;20318;-67
2024/04/15 07:46:53;;;;;;;12.52;5.35;;;12.10;69.10;;;;;;11062379;26;20359;-68
2024/04/15 07:52:01;;;;;;;9.35;4.50;;;12.20;69.50;;;;;;11054274;26;20246;-67
2024/04/15 07:57:08;;;;;;;5.93;4.18;;;12.20;68.90;;;;;;11064497;26;21037;-67
2024/04/15 08:02:13;;;;;;;9.48;4.20;;;12.30;68.50;;;;;;11060535;26;20364;-66
2024/04/15 08:07:23;;;;;;;10.80;3.70;;;12.30;68.50;;;;;;11061863;26;21526;-66
2024/04/15 08:12:28;;;;;;;7.28;4.15;;;12.30;68.50;;;;;;11061705;26;21703;-67
2024/04/15 08:17:34;;;;;;;12.02;4.53;;;12.40;68.60;;;;;;11063317;26;20386;-67
2024/04/15 08:22:44;;;;;;;12.98;4.43;;;12.30;68.50;;;;;;11066183;26;20348;-67
2024/04/15 08:27:49;;;;;;;6.18;3.13;;;12.40;67.90;;;;;;11063156;26;20257;-66
2024/04/15 08:32:55;;;;;;;9.23;3.05;;;12.50;67.50;;;;;;11064493;26;20826;-66
2024/04/15 08:38:03;;;;;;;8.82;3.17;;;12.60;67.00;;;;;;11061573;26;20249;-67
2024/04/15 08:43:10;;;;;;;6.13;2.75;;;12.90;66.90;;;;;;11072507;26;20424;-67
2024/04/15 08:48:17;;;;;;;7.47;3.30;;;13.00;66.30;;;;;;11070796;26;20249;-67
2024/04/15 08:53:26;;;;;;;6.22;3.05;;;13.10;66.10;;;;;;11070823;26;20249;-67
2024/04/15 08:58:32;;;;;;;6.07;3.33;;;13.20;65.70;;;;;;11068361;26;20478;-66
2024/04/15 09:03:37;;;;;;;6.65;3.88;;;13.30;65.00;;;;;;11071892;26;20261;-66
2024/04/15 09:08:48;;;;;;;5.85;3.28;;;13.30;65.20;;;;;;11069325;26;20317;-66
2024/04/15 09:13:54;;;;;;;6.22;1.90;;;13.30;64.60;;;;;;11070782;26;20246;-68
2024/04/15 09:19:04;;;;;;;6.07;2.10;;;13.40;64.20;;;;;;11069437;26;20343;-67
2024/04/15 09:24:12;;;;;;;4.32;1.77;;;13.60;64.30;;;;;;11069867;26;20357;-67
2024/04/15 09:29:17;;;;;;;5.13;1.73;;;13.80;62.80;;;;;;11075858;26;20915;-67
2024/04/15 09:34:23;;;;;;;4.38;1.20;;;13.90;63.00;;;;;;11072111;26;20609;-67
2024/04/15 09:39:36;;;;;;;7.22;1.30;;;14.00;62.40;;;;;;11069872;26;20250;-67
2024/04/15 09:44:46;;;;;;;6.30;1.40;;;14.10;61.80;;;;;;11066988;26;21321;-67
2024/04/15 09:49:51;;;;;;;6.15;2.00;;;14.20;61.10;;;;;;11064207;26;22759;-67
2024/04/15 09:55:06;;;;;;;5.80;1.35;;;14.20;60.70;;;;;;11067698;26;20865;-67
2024/04/15 10:00:16;;;;;;;4.78;1.45;;;14.20;60.80;;;;;;11070869;26;20350;-68
2024/04/15 10:05:24;;;;;;;6.35;1.70;;;14.10;60.90;;;;;;11067684;26;21148;-68
2024/04/15 10:10:33;;;;;;;7.25;1.80;;;14.20;60.50;;;;;;11065269;26;20336;-67
2024/04/15 10:15:39;;;;;;;4.53;1.58;;;14.20;60.50;;;;;;11068307;26;20374;-66
2024/04/15 10:20:46;;;;;;;5.68;1.88;;;14.10;61.60;;;;;;11066823;26;20332;-67
2024/04/15 10:25:55;;;;;;;2.92;1.55;;;14.10;60.30;;;;;;11069055;26;21819;-67
2024/04/15 10:31:05;;;;;;;7.53;1.88;;;14.20;60.30;;;;;;11053625;26;20245;-67
2024/04/15 10:36:13;;;;;;;4.22;1.52;;;14.20;60.50;;;;;;11055781;26;20258;-71
2024/04/15 10:41:24;;;;;;;5.70;1.50;;;14.20;60.50;;;;;;11056492;26;20941;-68
2024/04/15 10:46:29;;;;;;;6.30;2.10;;;14.40;60.50;;;;;;11050944;26;20354;-68
2024/04/15 10:51:35;;;;;;;7.15;2.00;;;14.50;59.80;;;;;;11053698;26;20335;-67
2024/04/15 10:56:43;;;;;;;4.75;1.70;;;14.50;59.80;;;;;;11058247;26;20360;-67
2024/04/15 11:01:49;;;;;;;5.35;1.67;;;14.60;60.80;;;;;;11095054;26;20245;-68
2024/04/15 11:06:54;;;;;;;5.20;1.92;;;14.70;59.80;;;;;;11086359;26;21968;-68
2024/04/15 11:12:06;;;;;;;6.50;1.95;;;14.90;59.90;;;;;;11065891;26;20245;-71
2024/04/15 11:17:12;;;;;;;4.95;1.60;;;14.80;58.20;;;;;;11066217;26;20253;-67
2024/04/15 11:22:20;;;;;;;5.90;1.60;;;14.80;59.10;;;;;;11074086;26;20398;-70
2024/04/15 11:27:32;;;;;;;6.97;1.95;;;14.90;59.20;;;;;;11091605;26;20312;-73
2024/04/15 11:32:38;;;;;;;7.88;2.20;;;14.90;58.20;;;;;;11081746;26;21253;-76
2024/04/15 11:37:44;;;;;;;4.88;1.73;;;15.00;58.60;;;;;;11087504;26;20246;-71
2024/04/15 11:42:53;;;;;;;4.38;1.95;;;15.10;57.90;;;;;;11114601;26;20338;-68
2024/04/15 11:48:00;;;;;;;4.78;2.13;;;15.20;58.00;;;;;;11118080;26;20330;-67
2024/04/15 11:53:08;;;;;;;5.90;2.15;;;15.30;58.40;;;;;;11090273;26;20824;-67
2024/04/15 11:58:16;;;;;;;8.50;2.15;;;15.30;57.80;;;;;;11130412;26;20330;-66
2024/04/15 12:03:23;;;;;;;6.88;1.88;;;15.40;57.50;;;;;;11132207;26;20242;-69
2024/04/15 12:08:28;;;;;;;4.85;1.83;;;15.60;58.10;;;;;;11126232;26;20246;-73
2024/04/15 12:13:37;;;;;;;6.35;2.20;;;15.80;58.10;;;;;;11072539;26;20336;-73
2024/04/15 12:18:42;;;;;;;6.45;2.00;;;15.90;57.60;;;;;;11094669;26;20389;-72
2024/04/15 12:23:47;;;;;;;5.80;1.52;;;15.70;56.90;;;;;;11069287;26;20246;-71
2024/04/15 12:28:55;;;;;;;5.38;1.80;;;15.50;56.30;;;;;;11074670;26;20926;-73
2024/04/15 12:34:01;;;;;;;4.50;1.50;;;15.30;56.80;;;;;;11074037;26;20340;-72
2024/04/15 12:39:06;;;;;;;3.22;1.52;;;15.00;56.60;;;;;;11078462;26;20244;-71
2024/04/15 12:44:14;;;;;;;6.15;2.03;;;15.00;57.30;;;;;;11075561;26;20253;-70
2024/04/15 12:49:20;;;;;;;5.70;1.88;;;14.90;58.10;;;;;;11110415;26;21789;-68
2024/04/15 12:54:25;;;;;;;5.97;1.60;;;14.70;58.20;;;;;;11110226;26;20258;-71
2024/04/15 12:59:33;;;;;;;2.17;1.10;;;14.50;58.40;;;;;;11119726;26;20246;-67
2024/04/15 13:04:39;;;;;;;6.40;1.83;;;14.40;59.00;;;;;;11139418;26;20250;-68
2024/04/15 13:09:44;;;;;;;6.28;1.40;;;14.20;59.00;;;;;;11139164;26;20250;-69
2024/04/15 13:14:52;;;;;;;6.00;1.23;;;14.10;58.30;;;;;;11139347;26;20335;-67
2024/04/15 13:19:58;;;;;;;5.03;1.55;;;14.10;58.00;;;;;;11124085;26;20752;-68
2024/04/15 13:25:03;;;;;;;7.40;1.52;;;13.90;58.30;;;;;;11105931;26;20329;-68
2024/04/15 13:30:12;;;;;;;6.25;1.50;;;13.80;59.00;;;;;;11136769;26;20288;-68
2024/04/15 13:35:19;;;;;;;6.35;1.27;;;13.80;59.70;;;;;;11117173;26;20250;-68
2024/04/15 13:40:25;;;;;;;8.02;1.67;;;13.90;59.50;;;;;;11123435;26;20741;-69
2024/04/15 13:45:33;;;;;;;5.38;1.55;;;14.00;60.60;;;;;;11132927;26;20354;-69
2024/04/15 13:50:39;;;;;;;4.97;1.38;;;14.00;59.80;;;;;;11104986;26;20350;-68
2024/04/15 13:55:44;;;;;;;4.30;1.38;;;14.10;59.60;;;;;;11118478;26;20354;-68
2024/04/15 14:00:54;;;;;;;4.22;1.27;;;14.20;60.10;;;;;;11095063;26;21495;-70
2024/04/15 14:05:59;;;;;;;5.45;1.42;;;14.10;60.30;;;;;;11132665;26;20316;-69
2024/04/15 14:11:05;;;;;;;8.05;1.55;;;14.00;60.60;;;;;;11141113;26;20225;-69
2024/04/15 14:16:13;;;;;;;4.10;1.50;;;13.80;62.00;;;;;;11128666;26;20247;-69
2024/04/15 14:21:19;;;;;;;8.45;1.33;;;13.70;62.80;;;;;;11096405;26;20255;-69
2024/04/15 14:26:24;;;;;;;3.88;1.30;;;13.60;63.10;;;;;;11107566;26;20254;-72
2024/04/15 14:31:32;;;;;;;4.22;1.20;;;13.60;63.10;;;;;;11110889;26;20343;-67
2024/04/15 14:36:38;;;;;;;2.97;1.30;;;13.50;63.50;;;;;;11089748;26;20250;-68
2024/04/15 14:41:44;;;;;;;4.63;0.90;;;13.30;65.20;;;;;;11060433;26;20249;-72
2024/04/15 14:46:53;;;;;;;4.95;1.60;;;13.20;65.50;;;;;;11055958;26;20355;-70
2024/04/15 14:51:59;;;;;;;4.07;1.20;;;13.00;66.30;;;;;;11058802;26;20250;-72
2024/04/15 14:57:04;;;;;;;3.42;1.00;;;12.80;67.00;;;;;;11055985;26;20382;-70
2024/04/15 15:02:13;;;;;;;2.05;0.70;;;12.30;68.30;;;;;;11056088;26;21586;-67
2024/04/15 15:07:18;;;;;;;3.38;1.10;;;11.10;69.10;;;;;;11055516;26;22261;-69
2024/04/15 15:12:24;;;;;;;7.13;1.90;;;10.40;71.00;;;;;;11060240;26;20245;-71
2024/04/15 15:17:32;;;;;;;3.55;0.70;;;10.00;71.10;;;;;;10970511;26;20274;-72
2024/04/15 15:22:38;;;;;;;0.57;0.43;;;9.70;72.80;;;;;;11059430;26;20274;-69
2024/04/15 15:27:44;;;;;;;1.42;0.75;;;9.30;72.00;;;;;;11062603;26;20854;-71
2024/04/15 15:32:55;;;;;;;2.50;0.75;;;9.00;72.40;;;;;;11062590;26;20244;-71
2024/04/15 15:38:00;;;;;;;1.48;1.05;;;8.80;73.00;;;;;;11060836;26;20372;-67
2024/04/15 15:43:07;;;;;;;2.97;1.60;;;8.60;72.80;;;;;;11051558;26;20250;-69
2024/04/15 15:48:15;;;;;;;2.50;1.83;;;8.40;73.70;;;;;;11053253;26;20250;-69
2024/04/15 15:53:20;;;;;;;2.23;1.57;;;8.40;74.80;;;;;;11059708;26;22035;-67
2024/04/15 15:58:26;;;;;;;6.47;2.13;;;8.40;74.70;;;;;;11060649;26;20331;-68
2024/04/15 16:03:34;;;;;;;1.70;1.40;;;8.40;75.90;;;;;;11062942;26;20237;-67
2024/04/15 16:08:39;;;;;;;3.37;1.70;;;8.40;75.10;;;;;;11061301;26;20230;-65
2024/04/15 16:13:45;;;;;;;2.33;1.80;;;8.50;75.50;;;;;;11059629;26;20934;-69
2024/04/15 16:18:53;;;;;;;2.97;2.43;;;8.50;76.60;;;;;;11054034;26;20235;-72
2024/04/15 16:23:58;;;;;;;7.23;3.10;;;8.80;75.20;;;;;;11049982;26;22100;-68
2024/04/15 16:29:06;;;;;;;5.07;3.50;;;9.10;74.70;;;;;;11055267;26;20300;-67
2024/04/15 16:34:14;;;;;;;8.10;3.50;;;9.30;74.90;;;;;;10992459;26;20250;-67
2024/04/15 16:39:19;;;;;;;5.30;3.38;;;9.40;75.10;;;;;;11050855;26;20375;-67
2024/04/15 16:44:25;;;;;;;4.50;3.60;;;9.30;74.90;;;;;;11051759;26;20807;-70
2024/04/15 16:49:34;;;;;;;7.00;4.30;;;9.10;74.80;;;;;;11051770;26;20233;-68
2024/04/15 16:54:40;;;;;;;7.40;4.87;;;9.10;75.80;;;;;;11050959;26;20238;-70
2024/04/15 16:59:45;;;;;;;9.20;4.82;;;9.00;75.80;;;;;;11049797;26;20365;-61
2024/04/15 17:04:54;;;;;;;8.90;5.35;;;9.00;76.80;;;;;;11060841;26;20242;-63
2024/04/15 17:09:59;;;;;;;4.80;3.37;;;9.10;76.80;;;;;;11067874;26;20242;-63
2024/04/15 17:15:05;;;;;;;4.67;2.53;;;9.10;77.00;;;;;;11064395;26;20246;-64
2024/04/15 17:20:13;;;;;;;8.15;3.05;;;9.10;78.60;;;;;;11055680;26;20234;-63
2024/04/15 17:25:23;;;;;;;2.55;2.08;;;9.10;77.00;;;;;;11057310;26;20238;-61
2024/04/15 17:30:28;;;;;;;5.75;2.72;;;9.10;78.60;;;;;;11056619;26;20250;-62
2024/04/15 17:35:38;;;;;;;2.87;2.10;;;9.20;78.50;;;;;;11057191;26;20238;-63
2024/04/15 17:40:44;;;;;;;2.72;2.03;;;9.30;78.40;;;;;;11055443;26;20300;-62
2024/04/15 17:45:49;;;;;;;4.70;1.83;;;9.40;78.70;;;;;;11053396;26;20246;-63
2024/04/15 17:50:57;;;;;;;5.22;1.80;;;9.50;80.20;;;;;;11059166;26;20872;-62
2024/04/15 17:56:03;;;;;;;6.10;2.55;;;9.60;78.40;;;;;;11059115;26;20339;-62
2024/04/15 18:01:08;;;;;;;6.00;2.33;;;9.60;77.90;;;;;;11057253;26;20234;-63
2024/04/15 18:06:16;;;;;;;5.23;2.03;;;9.60;79.10;;;;;;11057496;26;21698;-61
2024/04/15 18:11:22;;;;;;;4.43;1.20;;;9.50;77.80;;;;;;11052960;26;20287;-63
2024/04/15 18:16:27;;;;;;;2.72;1.50;;;9.50;78.10;;;;;;11054670;26;20238;-64
2024/04/15 18:21:36;;;;;;;2.47;1.27;;;9.30;77.40;;;;;;11062221;26;20323;-63
2024/04/15 18:26:42;;;;;;;2.90;1.00;;;9.10;75.80;;;;;;11065287;26;20250;-63
2024/04/15 18:31:47;;;;;;;3.97;1.00;;;9.00;75.30;;;;;;11055334;26;20238;-63
2024/04/15 18:36:55;;;;;;;3.25;1.08;;;8.90;74.80;;;;;;11064513;26;20941;-64
2024/04/15 18:42:01;;;;;;;2.58;0.90;;;8.80;74.40;;;;;;11074124;26;20330;-59
2024/04/15 18:47:07;;;;;;;3.58;1.23;;;8.80;74.20;;;;;;11073146;26;20350;-60
2024/04/15 18:52:15;;;;;;;1.83;1.13;;;8.70;74.00;;;;;;11071247;26;20229;-61
2024/04/15 18:57:20;;;;;;;2.30;0.93;;;8.70;74.30;;;;;;11070454;26;21279;-61
2024/04/15 19:02:26;;;;;;;3.80;1.00;;;8.60;74.40;;;;;;11068394;26;20238;-61
2024/04/15 19:07:34;;;;;;;3.53;1.27;;;8.50;74.60;;;;;;11064625;26;20312;-61
2024/04/15 19:12:39;;;;;;;3.03;1.40;;;8.50;74.60;;;;;;11072833;26;20857;-62
2024/04/15 19:17:45;;;;;;;3.07;1.10;;;8.50;74.80;;;;;;11063905;26;20241;-61
2024/04/15 19:22:53;;;;;;;5.60;2.00;;;8.40;74.20;;;;;;11060596;26;20760;-59
2024/04/15 19:27:59;;;;;;;1.63;1.03;;;8.40;75.20;;;;;;11068099;26;20242;-61
2024/04/15 19:33:05;;;;;;;3.47;1.00;;;8.30;75.00;;;;;;11068906;26;21359;-62
2024/04/15 19:38:13;;;;;;;2.25;1.30;;;8.40;75.20;;;;;;11069027;26;20234;-61
2024/04/15 19:43:18;;;;;;;4.30;1.30;;;8.40;75.20;;;;;;11065751;26;20306;-61
2024/04/15 19:48:25;;;;;;;1.40;0.90;;;8.50;74.70;;;;;;11067621;26;20238;-59
2024/04/15 19:53:33;;;;;;;3.60;1.60;;;8.50;74.40;;;;;;11067748;26;21051;-63
2024/04/15 19:58:38;;;;;;;5.27;1.90;;;8.60;75.50;;;;;;11070993;26;20238;-61
2024/04/15 20:03:44;;;;;;;2.95;1.70;;;8.60;74.90;;;;;;11066504;26;20233;-61
2024/04/15 20:08:52;;;;;;;3.77;1.50;;;8.60;74.60;;;;;;11066718;26;20319;-59
2024/04/15 20:13:57;;;;;;;2.67;1.13;;;8.50;74.30;;;;;;11064538;26;20715;-60
2024/04/15 20:19:06;;;;;;;2.67;1.05;;;8.50;73.80;;;;;;11060190;26;20250;-60
2024/04/15 20:24:14;;;;;;;2.03;0.90;;;8.40;74.30;;;;;;11059996;26;20242;-59
2024/04/15 20:29:20;;;;;;;1.13;0.67;;;8.40;73.90;;;;;;11064713;26;21875;-60
2024/04/15 20:34:26;;;;;;;2.75;0.93;;;8.40;73.60;;;;;;11063339;26;20317;-59
2024/04/15 20:39:35;;;;;;;5.27;0.93;;;8.30;73.20;;;;;;11066720;26;20328;-59
2024/04/15 20:44:40;;;;;;;2.67;1.33;;;8.40;73.90;;;;;;11066513;26;20242;-68
2024/04/15 20:49:45;;;;;;;2.00;0.70;;;8.40;74.80;;;;;;11061980;26;20342;-66
2024/04/15 20:54:53;;;;;;;2.00;0.70;;;8.40;74.90;;;;;;11059808;26;20308;-68
2024/04/15 20:59:59;;;;;;;1.27;0.60;;;8.30;74.70;;;;;;11059722;26;20234;-67
2024/04/15 21:05:04;;;;;;;1.13;0.77;;;8.30;75.00;;;;;;11061799;26;20748;-68
2024/04/15 21:10:12;;;;;;;2.97;0.80;;;8.30;75.60;;;;;;11061300;26;22042;-67
2024/04/15 21:15:18;;;;;;;1.80;1.30;;;8.40;76.20;;;;;;11061139;26;20254;-67
2024/04/15 21:20:24;;;;;;;3.17;1.20;;;8.40;76.80;;;;;;11060777;26;20234;-64
2024/04/15 21:25:32;;;;;;;3.77;1.10;;;8.40;75.90;;;;;;11059943;26;20245;-67
2024/04/15 21:30:37;;;;;;;3.90;1.10;;;8.40;75.90;;;;;;11061643;26;20702;-69
2024/04/15 21:35:43;;;;;;;2.43;1.40;;;8.40;76.30;;;;;;11062932;26;20234;-66
2024/04/15 21:40:50;;;;;;;3.35;1.35;;;8.40;76.60;;;;;;11061747;26;20863;-69
2024/04/15 21:45:56;;;;;;;2.53;1.33;;;8.50;76.90;;;;;;11059728;26;20355;-68
2024/04/15 21:51:01;;;;;;;3.73;3.33;;;8.60;77.10;;;;;;11055849;26;20342;-69
2024/04/15 21:56:12;;;;;;;5.57;4.10;;;8.60;77.40;;;;;;11057721;26;20242;-69
2024/04/15 22:01:17;;;;;;;6.77;5.83;;;8.50;78.30;;;;;;11056618;26;20819;-68
2024/04/15 22:06:23;;;;;;;7.65;5.75;;;8.50;78.80;;;;;;11058480;26;20241;-66
2024/04/15 22:11:31;;;;;;;4.80;4.27;;;8.40;78.40;;;;;;11062045;26;20242;-68
2024/04/15 22:16:36;;;;;;;4.03;2.93;;;8.40;80.10;;;;;;11059643;26;20253;-65
2024/04/15 22:21:42;;;;;;;4.93;3.37;;;8.50;81.30;;;;;;11061405;26;20237;-68
2024/04/15 22:26:50;;;;;;;5.37;3.33;;;8.50;81.10;;;;;;11059103;26;20747;-68
2024/04/15 22:31:56;;;;;;;5.43;3.10;;;8.50;83.30;;;;;;11053948;26;20238;-67
2024/04/15 22:37:01;;;;;;;4.33;2.87;;;8.50;83.70;;;;;;11058207;26;20806;-67
2024/04/15 22:42:09;;;;;;;6.70;4.18;;;8.60;86.90;;;;;;11060299;26;20321;-66
2024/04/15 22:47:16;;;;;;;8.07;3.55;;;8.70;84.90;;;;;;11064307;26;20957;-69
2024/04/15 22:52:22;;;;;;;5.57;3.97;;;8.60;83.30;;;;;;11065649;26;20336;-68
2024/04/15 22:57:30;;;;;;;6.47;3.73;;;8.50;82.20;;;;;;11060486;26;20234;-66
2024/04/15 23:02:35;;;;;;;7.50;3.73;;;8.50;82.90;;;;;;11058094;26;20246;-62
2024/04/15 23:07:41;;;;;;;6.43;3.30;;;8.40;84.00;;;;;;11058642;26;22101;-63
2024/04/15 23:12:49;;;;;;;5.33;2.47;;;8.40;82.70;;;;;;11057253;26;20319;-63
2024/04/15 23:17:54;;;;;;;5.73;2.87;;;8.30;82.70;;;;;;11060099;26;20362;-62
2024/04/15 23:22:59;;;;;;;6.90;2.20;;;8.30;82.50;;;;;;11060814;26;20233;-62
2024/04/15 23:28:08;;;;;;;6.10;2.13;;;8.30;82.30;;;;;;11058251;26;21999;-61
2024/04/15 23:33:13;;;;;;;4.20;1.97;;;8.30;82.00;;;;;;11055039;26;20234;-62
2024/04/15 23:38:18;;;;;;;7.73;2.50;;;8.30;81.90;;;;;;11058145;26;20337;-62
2024/04/15 23:43:28;;;;;;;6.93;2.13;;;8.20;83.10;;;;;;11059988;26;20296;-63
2024/04/15 23:48:33;;;;;;;6.40;2.60;;;8.20;82.40;;;;;;11062967;26;20238;-62
2024/04/15 23:53:39;;;;;;;6.30;2.57;;;8.20;81.90;;;;;;11054656;26;20585;-62
2024/04/15 23:58:47;;;;;;;8.20;2.30;;;8.20;82.60;;;;;;11052949;26;20238;-63
